Portada
METAR-TAF:

METAR-TAF

Aeropuertos :

Maracaibo, Venezuela

Aeropuerto Internacional de La Chinita

latitud: 10-34N, longitud: 071-44W, altitud: 66 m

METAR: falta

Hora: 16:33 (20:33 UTC)

Pronóstico

El informe se hizo hace 4 horas y 33 minutos, a las 16:00 UTC
Pronóstico válido del 23 a las 18 UTC al 24 a las 18 UTC
Viento 5 kt del oeste-suroeste
Visibilidad 10 km o más
Nubes dispersas a una altura de 1300 ft
Evolucionando progresivamente
del 23 a las 18 UTC al 23 a las 22 UTC
Viento 5 kt del sur
Visibilidad: 9000 m
Cielo nuboso a una altura de 2000 ft
llovizna

TAF: SVMC 231600Z 2318/2418 25005KT 9999 SCT013 TX33/19Z TN24/08Z BECMG 2318/2322 18005KT 9000 DZ BKN020

Observaciones y pronósticos meteorológicos de más de 4000 aeropuertos (mensajes METAR y TAF).

Los puntos amarillos y rojos representan las estaciones disponibles.

Ponga el ratón en el punto deseado para ver el nombre de la estación.

Haga clic para ver las observaciones y los pronósticos meteorológicos.

Para cambiar el mapa : haga clic en los botones verdes con una cruz de color negro para hacer un zoom, en el botón verde con un guión para alejar o en las flechas verdes para mapas adyacentes.


METAR-TAF: